Time;durP1;ratioP1;P1;durP2;ratioP2;P2;SDS_P1;SDS_P2;PMS_P1;PMS_P2;Temp;Humidity;BMP_temperature;BMP_pressure;BME280_temperature;BME280_humidity;BME280_pressure;Samples;Min_cycle;Max_cycle;Signal;HPM_P1;HPM_P2
2022/04/02 01:46:19;;;;;;;5.23;3.93;;;1.30;78.00;;;;;;4863958;29;20767;-92
2022/04/02 01:48:45;;;;;;;8.40;3.77;;;1.20;78.20;;;;;;4848498;29;20186;-92
2022/04/02 01:51:11;;;;;;;8.07;4.10;;;1.20;78.30;;;;;;4848285;29;20572;-92
2022/04/02 01:53:37;;;;;;;6.97;3.90;;;1.20;78.50;;;;;;4848406;29;20653;-92
2022/04/02 01:56:03;;;;;;;8.23;3.93;;;1.20;78.50;;;;;;4848534;29;20210;-92
2022/04/02 01:58:29;;;;;;;7.70;4.07;;;1.20;78.50;;;;;;4848280;29;20214;-92
2022/04/02 02:00:55;;;;;;;4.97;3.60;;;1.20;78.50;;;;;;4848318;29;20219;-92
2022/04/02 02:03:20;;;;;;;5.77;4.00;;;1.20;78.50;;;;;;4848262;29;20177;-93
2022/04/02 02:05:46;;;;;;;5.70;3.90;;;1.20;78.60;;;;;;4848938;29;20199;-92
2022/04/02 02:08:12;;;;;;;6.33;4.10;;;1.20;78.60;;;;;;4847985;29;20663;-92
2022/04/02 02:10:37;;;;;;;8.00;3.93;;;1.20;78.70;;;;;;4848329;29;20290;-92
2022/04/02 02:13:03;;;;;;;7.17;4.03;;;1.20;78.80;;;;;;4847861;29;20264;-92
2022/04/02 02:15:28;;;;;;;6.77;4.10;;;1.10;78.80;;;;;;4847960;29;20626;-92
2022/04/02 02:17:54;;;;;;;5.83;4.10;;;1.10;78.90;;;;;;4848186;29;20225;-92
2022/04/02 02:20:20;;;;;;;6.83;4.13;;;1.10;78.80;;;;;;4848095;29;20183;-92
2022/04/02 02:22:48;;;;;;;5.20;3.90;;;1.10;79.00;;;;;;4848739;29;20218;-92
2022/04/02 02:25:15;;;;;;;7.97;4.10;;;1.10;79.10;;;;;;4847804;29;20214;-93
2022/04/02 02:27:42;;;;;;;5.57;3.73;;;1.10;79.20;;;;;;4848681;29;20554;-93
2022/04/02 02:30:09;;;;;;;5.60;4.07;;;1.10;79.30;;;;;;4848486;29;20189;-92
2022/04/02 02:32:36;;;;;;;5.23;3.90;;;1.00;79.40;;;;;;4847937;29;20244;-92
2022/04/02 02:38:08;;;;;;;7.63;5.07;;;1.00;79.50;;;;;;4865266;29;20181;-93
2022/04/02 02:40:34;;;;;;;5.63;4.17;;;1.00;79.60;;;;;;4848175;29;20180;-93
2022/04/02 02:43:00;;;;;;;3.90;3.50;;;0.90;79.80;;;;;;4847950;29;20259;-92
2022/04/02 02:45:26;;;;;;;8.03;4.33;;;0.90;79.90;;;;;;4848030;29;20709;-92
2022/04/02 02:47:53;;;;;;;6.00;3.90;;;0.90;80.00;;;;;;4848097;29;20791;-92
2022/04/02 02:50:19;;;;;;;4.47;4.07;;;0.80;80.20;;;;;;4848343;29;20264;-92
2022/04/02 02:52:45;;;;;;;7.07;4.30;;;0.80;80.20;;;;;;4847696;29;20235;-92
2022/04/02 02:55:10;;;;;;;7.63;4.20;;;0.70;80.40;;;;;;4847307;29;20205;-92
2022/04/02 02:57:40;;;;;;;7.30;4.00;;;0.70;80.60;;;;;;4847794;29;20189;-92
2022/04/02 03:00:07;;;;;;;5.57;3.80;;;0.60;80.70;;;;;;4847911;29;20204;-92
2022/04/02 03:02:33;;;;;;;5.00;4.03;;;0.60;80.80;;;;;;4846885;29;20286;-93
2022/04/02 03:04:59;;;;;;;7.47;4.27;;;0.50;80.90;;;;;;4847539;29;20219;-92
2022/04/02 03:07:25;;;;;;;6.43;4.60;;;0.60;81.00;;;;;;4847637;29;20686;-92
2022/04/02 03:09:51;;;;;;;5.77;4.23;;;0.60;81.00;;;;;;4847299;29;20232;-93
2022/04/02 03:12:16;;;;;;;9.10;4.17;;;0.50;81.00;;;;;;4847054;29;20188;-93
2022/04/02 03:14:42;;;;;;;6.57;4.43;;;0.50;81.20;;;;;;4847022;29;20204;-92
2022/04/02 03:17:09;;;;;;;6.13;4.40;;;0.50;81.30;;;;;;4847225;29;20175;-92
2022/04/02 03:19:35;;;;;;;7.63;4.60;;;0.40;81.30;;;;;;4847751;29;20187;-92
2022/04/02 03:22:01;;;;;;;6.47;5.13;;;0.40;81.50;;;;;;4847021;29;20558;-92
2022/04/02 03:24:27;;;;;;;5.33;4.13;;;0.40;81.60;;;;;;4847396;29;20185;-92
2022/04/02 03:26:52;;;;;;;8.87;4.83;;;0.30;81.80;;;;;;4847006;29;20300;-91
2022/04/02 03:29:18;;;;;;;14.53;4.53;;;0.30;81.90;;;;;;4846862;29;20180;-92
2022/04/02 03:31:44;;;;;;;5.83;3.93;;;0.30;82.00;;;;;;4846576;29;20203;-92
2022/04/02 03:34:10;;;;;;;6.87;4.13;;;0.30;82.10;;;;;;4846648;29;20561;-92
2022/04/02 03:36:36;;;;;;;4.53;4.10;;;0.30;82.10;;;;;;4846600;29;20203;-92
2022/04/02 03:39:02;;;;;;;8.53;4.33;;;0.30;82.30;;;;;;4846899;29;20598;-92
2022/04/02 03:41:28;;;;;;;6.80;4.57;;;0.30;82.40;;;;;;4846644;29;20554;-93
2022/04/02 03:43:56;;;;;;;9.37;4.33;;;0.20;82.40;;;;;;4846553;29;20182;-92
2022/04/02 03:49:06;;;;;;;6.70;4.37;;;0.10;82.60;;;;;;4863387;29;20182;-92
2022/04/02 03:51:31;;;;;;;6.13;4.60;;;0.10;82.80;;;;;;4846015;29;20690;-92
2022/04/02 03:53:59;;;;;;;5.73;4.50;;;0.10;82.80;;;;;;4846160;29;20595;-92
2022/04/02 03:56:25;;;;;;;7.33;4.37;;;0.10;82.80;;;;;;4845937;29;20231;-92
2022/04/02 03:58:51;;;;;;;9.73;4.93;;;0.00;82.90;;;;;;4846350;29;20654;-93
2022/04/02 04:01:16;;;;;;;9.93;4.60;;;0.00;83.00;;;;;;4846099;29;20214;-93
2022/04/02 04:03:42;;;;;;;8.90;4.50;;;0.00;83.10;;;;;;4846021;29;20192;-92
2022/04/02 04:06:07;;;;;;;8.73;4.97;;;0.00;83.30;;;;;;4845884;29;20204;-92
2022/04/02 04:08:36;;;;;;;9.93;5.07;;;0.00;83.40;;;;;;4845691;29;20194;-92
2022/04/02 04:11:02;;;;;;;5.63;4.43;;;0.00;83.40;;;;;;4845392;29;20201;-92
2022/04/02 04:13:28;;;;;;;7.43;4.77;;;0.00;83.60;;;;;;4845539;29;20183;-92
2022/04/02 04:15:53;;;;;;;13.63;4.80;;;0.00;83.60;;;;;;4845711;29;20207;-92
2022/04/02 04:18:19;;;;;;;5.43;4.83;;;0.00;83.70;;;;;;4845973;29;20183;-93
2022/04/02 04:20:44;;;;;;;9.43;4.57;;;-0.10;83.70;;;;;;4845986;29;20200;-92
2022/04/02 04:23:10;;;;;;;11.80;4.87;;;-0.10;83.80;;;;;;4845564;29;20185;-91
2022/04/02 04:25:36;;;;;;;6.43;4.60;;;-0.10;83.80;;;;;;4846003;29;20261;-92
2022/04/02 04:28:01;;;;;;;12.17;5.50;;;-0.10;83.80;;;;;;4845632;29;20716;-92
2022/04/02 04:30:27;;;;;;;9.30;5.03;;;-0.10;83.90;;;;;;4845535;29;20219;-92
2022/04/02 04:32:55;;;;;;;8.43;4.67;;;-0.20;84.00;;;;;;4845219;29;20206;-92
2022/04/02 04:35:21;;;;;;;9.53;5.13;;;-0.10;84.10;;;;;;4845766;29;20210;-91
2022/04/02 04:37:46;;;;;;;6.30;4.87;;;-0.10;83.90;;;;;;4845709;29;20187;-92
2022/04/02 04:40:12;;;;;;;14.43;5.33;;;-0.10;83.80;;;;;;4846009;29;20281;-92
2022/04/02 04:42:38;;;;;;;8.93;5.03;;;-0.10;84.00;;;;;;4845470;29;20241;-92
2022/04/02 04:45:04;;;;;;;5.70;4.40;;;-0.20;83.90;;;;;;4845512;29;20223;-92
2022/04/02 04:47:30;;;;;;;10.10;4.97;;;-0.20;84.10;;;;;;4846070;29;20179;-92
2022/04/02 04:49:55;;;;;;;8.70;5.67;;;-0.10;84.00;;;;;;4845490;29;20190;-92
2022/04/02 04:52:21;;;;;;;7.13;5.50;;;-0.10;83.90;;;;;;4846310;29;20215;-92
2022/04/02 04:54:46;;;;;;;6.97;4.63;;;-0.20;83.80;;;;;;4846195;29;20250;-91
2022/04/02 04:57:12;;;;;;;6.83;4.60;;;-0.20;83.80;;;;;;4846040;29;20221;-91
2022/04/02 04:59:38;;;;;;;7.57;4.80;;;-0.30;83.80;;;;;;4846980;29;20189;-91
2022/04/02 05:02:04;;;;;;;8.27;5.40;;;-0.30;84.00;;;;;;4846034;29;20211;-91
2022/04/02 05:04:30;;;;;;;10.37;4.80;;;-0.30;84.00;;;;;;4846284;29;20604;-91
2022/04/02 05:06:56;;;;;;;12.87;5.30;;;-0.30;84.00;;;;;;4846733;29;20266;-91
2022/04/02 05:09:22;;;;;;;7.63;5.27;;;-0.30;84.00;;;;;;4846383;29;20230;-91
2022/04/02 05:11:47;;;;;;;9.30;4.87;;;-0.30;84.00;;;;;;4846443;29;20186;-91
2022/04/02 05:14:13;;;;;;;11.33;5.00;;;-0.30;83.90;;;;;;4846107;29;20682;-91
2022/04/02 05:16:39;;;;;;;7.53;4.80;;;-0.40;84.00;;;;;;4846240;29;20179;-92
2022/04/02 05:19:06;;;;;;;7.30;5.27;;;-0.40;84.00;;;;;;4846298;29;20190;-91
2022/04/02 05:21:32;;;;;;;10.00;5.20;;;-0.30;84.00;;;;;;4846392;29;20214;-92
2022/04/02 05:23:58;;;;;;;8.40;5.80;;;-0.40;84.10;;;;;;4846486;29;20183;-91
2022/04/02 05:26:23;;;;;;;5.73;5.00;;;-0.40;84.00;;;;;;4847711;29;20211;-92
2022/04/02 05:28:49;;;;;;;8.93;4.40;;;-0.30;84.10;;;;;;4866072;29;20585;-91
2022/04/02 05:31:14;;;;;;;6.37;5.07;;;-0.30;84.00;;;;;;4851083;29;20186;-91
2022/04/02 05:33:40;;;;;;;6.93;5.13;;;-0.30;84.00;;;;;;4857828;29;20175;-91
2022/04/02 05:36:05;;;;;;;8.37;4.97;;;-0.30;84.00;;;;;;4854847;29;20201;-90
2022/04/02 05:38:31;;;;;;;7.23;4.57;;;-0.20;84.00;;;;;;4851872;29;20193;-91
2022/04/02 05:40:57;;;;;;;7.90;5.40;;;-0.20;84.00;;;;;;4854577;29;20252;-91
2022/04/02 05:43:23;;;;;;;9.20;5.37;;;-0.20;83.90;;;;;;4853691;29;20195;-91
2022/04/02 05:45:48;;;;;;;8.07;4.70;;;-0.10;83.80;;;;;;4851708;29;20235;-90
2022/04/02 05:48:17;;;;;;;7.97;5.10;;;-0.10;83.70;;;;;;4850851;29;20278;-90
2022/04/02 05:50:43;;;;;;;6.23;4.90;;;0.00;83.60;;;;;;4850137;29;20183;-91
2022/04/02 05:53:08;;;;;;;7.63;5.20;;;0.00;83.50;;;;;;4865137;29;20263;-91
2022/04/02 05:55:35;;;;;;;7.53;5.10;;;0.00;83.50;;;;;;4866092;29;20700;-92
2022/04/02 05:58:01;;;;;;;7.27;5.40;;;0.00;83.60;;;;;;4854475;29;20194;-92
2022/04/02 06:00:27;;;;;;;8.60;5.00;;;0.10;83.50;;;;;;4850467;29;20244;-91
2022/04/02 06:02:53;;;;;;;8.13;5.20;;;0.10;83.60;;;;;;4849485;29;20277;-89
2022/04/02 06:05:18;;;;;;;9.80;5.03;;;0.20;83.40;;;;;;4863077;29;20240;-90
2022/04/02 06:07:44;;;;;;;7.43;5.10;;;0.30;83.20;;;;;;4863163;29;20203;-90
2022/04/02 06:10:10;;;;;;;7.30;5.37;;;0.30;83.00;;;;;;4846895;29;20184;-91
2022/04/02 06:12:37;;;;;;;11.70;5.13;;;0.30;82.80;;;;;;4846881;29;20196;-89
2022/04/02 06:15:04;;;;;;;8.97;5.20;;;0.30;82.70;;;;;;4846601;29;20206;-90
2022/04/02 06:17:29;;;;;;;11.23;5.23;;;0.40;82.80;;;;;;4848352;29;20314;-91
2022/04/02 06:19:55;;;;;;;10.50;5.03;;;0.50;82.70;;;;;;4851084;29;20635;-91
2022/04/02 06:22:20;;;;;;;15.47;5.53;;;0.50;82.70;;;;;;4846794;29;20624;-90
2022/04/02 06:24:46;;;;;;;8.37;4.97;;;0.50;82.60;;;;;;4846757;29;20200;-90
2022/04/02 06:27:12;;;;;;;7.80;5.30;;;0.60;82.60;;;;;;4850232;29;20183;-93
2022/04/02 06:29:37;;;;;;;10.33;5.27;;;0.60;82.70;;;;;;4848765;29;20213;-92
2022/04/02 06:32:04;;;;;;;7.87;5.33;;;0.70;82.70;;;;;;4849024;29;20681;-91
2022/04/02 06:34:29;;;;;;;8.13;5.43;;;0.70;82.80;;;;;;4847395;29;20183;-91
2022/04/02 06:36:55;;;;;;;13.67;5.60;;;0.80;82.80;;;;;;4845924;29;20711;-90
2022/04/02 06:39:21;;;;;;;7.40;4.80;;;0.80;82.70;;;;;;4845861;29;20199;-89
2022/04/02 06:41:46;;;;;;;10.57;5.93;;;0.90;82.60;;;;;;4863034;29;20216;-90
2022/04/02 06:44:13;;;;;;;5.63;4.90;;;0.90;82.70;;;;;;4846330;29;20749;-90
2022/04/02 06:46:38;;;;;;;7.03;4.93;;;1.10;82.60;;;;;;4846072;29;20189;-90
2022/04/02 06:49:06;;;;;;;10.37;5.57;;;1.10;82.50;;;;;;4845965;29;20283;-91
2022/04/02 06:51:32;;;;;;;9.27;5.23;;;1.20;82.20;;;;;;4846881;29;20191;-92
2022/04/02 06:53:58;;;;;;;7.80;5.10;;;1.30;82.00;;;;;;4846173;29;20189;-90
2022/04/02 06:56:23;;;;;;;7.33;4.80;;;1.30;81.90;;;;;;4846089;29;20346;-91
2022/04/02 06:58:49;;;;;;;17.97;5.93;;;1.40;81.40;;;;;;4846247;29;20729;-91
2022/04/02 07:01:14;;;;;;;7.27;4.43;;;1.50;81.30;;;;;;4847906;29;20219;-91
2022/04/02 07:03:40;;;;;;;5.37;4.63;;;1.60;81.20;;;;;;4847231;29;20570;-92
2022/04/02 07:06:06;;;;;;;8.70;4.47;;;1.70;80.90;;;;;;4847148;29;20210;-90
2022/04/02 07:08:31;;;;;;;8.00;5.23;;;1.80;80.40;;;;;;4847965;29;20196;-90
2022/04/02 07:10:57;;;;;;;6.40;4.90;;;1.80;80.00;;;;;;4845973;29;20292;-91
2022/04/02 07:13:24;;;;;;;10.57;4.60;;;2.00;79.90;;;;;;4830845;29;20662;-92
2022/04/02 07:15:50;;;;;;;5.63;4.57;;;2.00;78.50;;;;;;4845465;29;20237;-89
2022/04/02 07:18:15;;;;;;;8.13;4.03;;;2.10;77.70;;;;;;4846097;29;20212;-90
2022/04/02 07:20:41;;;;;;;6.10;3.63;;;2.20;76.80;;;;;;4849405;29;20179;-90
2022/04/02 07:23:09;;;;;;;4.87;3.47;;;2.10;74.70;;;;;;4845561;29;20205;-88
2022/04/02 07:25:39;;;;;;;5.90;3.70;;;2.30;75.10;;;;;;4845335;29;20206;-90
2022/04/02 07:28:06;;;;;;;4.47;2.80;;;2.40;73.50;;;;;;4845282;29;20187;-89
2022/04/02 07:30:36;;;;;;;5.50;3.40;;;2.40;72.50;;;;;;4845148;29;20182;-90
2022/04/02 07:33:03;;;;;;;4.53;3.53;;;2.60;72.90;;;;;;4845224;29;20752;-89
2022/04/02 07:35:53;;;;;;;6.70;3.50;;;2.60;71.80;;;;;;4845166;29;20209;-90
2022/04/02 07:38:34;;;;;;;4.63;3.40;;;2.70;71.00;;;;;;4845497;29;20229;-89
2022/04/02 07:41:26;;;;;;;3.87;3.13;;;2.70;70.80;;;;;;4845012;29;20209;-90
2022/04/02 07:43:58;;;;;;;3.23;2.60;;;2.80;69.90;;;;;;4845123;29;20292;-90
2022/04/02 07:46:28;;;;;;;3.63;2.37;;;2.90;69.90;;;;;;4861375;29;20751;-90
2022/04/02 07:48:56;;;;;;;4.57;2.10;;;3.00;68.40;;;;;;4844817;29;20324;-90
2022/04/02 07:51:26;;;;;;;3.00;2.40;;;3.20;69.80;;;;;;4844726;29;20213;-91
2022/04/02 07:53:55;;;;;;;1.80;1.70;;;3.10;67.00;;;;;;4844933;29;20193;-90
2022/04/02 07:56:34;;;;;;;4.10;3.43;;;3.10;67.00;;;;;;4844603;29;20212;-91
2022/04/02 07:59:03;;;;;;;2.10;1.90;;;3.20;67.40;;;;;;4861417;29;20180;-90
2022/04/02 08:01:29;;;;;;;3.93;2.67;;;3.30;65.50;;;;;;4844470;29;20212;-90
2022/04/02 08:03:56;;;;;;;1.77;1.67;;;3.20;64.50;;;;;;4844833;29;20212;-90
2022/04/02 08:06:22;;;;;;;3.10;2.70;;;3.30;64.90;;;;;;4844624;29;20209;-91
2022/04/02 08:08:48;;;;;;;2.63;2.00;;;3.50;67.80;;;;;;4844693;29;20189;-90
2022/04/02 08:11:18;;;;;;;3.53;2.00;;;3.60;65.30;;;;;;4844450;29;20685;-91
2022/04/02 08:13:45;;;;;;;1.97;1.77;;;3.60;62.40;;;;;;4861208;29;20185;-90
2022/04/02 08:16:11;;;;;;;2.60;2.30;;;3.60;61.20;;;;;;4844471;29;20263;-90
2022/04/02 08:18:41;;;;;;;1.93;1.40;;;3.70;64.40;;;;;;4844686;29;20561;-90
2022/04/02 08:21:08;;;;;;;1.60;1.50;;;3.70;59.90;;;;;;4845204;29;20241;-90
2022/04/02 08:23:35;;;;;;;3.13;2.00;;;3.80;61.10;;;;;;4844947;29;20204;-90
2022/04/02 08:26:21;;;;;;;6.07;2.37;;;3.70;61.40;;;;;;4844075;29;20607;-90
2022/04/02 08:28:54;;;;;;;3.30;2.43;;;3.80;62.90;;;;;;4844467;29;20649;-90
2022/04/02 08:31:29;;;;;;;4.13;2.60;;;3.90;63.60;;;;;;4861036;29;20227;-91
2022/04/02 08:34:26;;;;;;;2.30;1.87;;;4.00;62.50;;;;;;4844331;29;20184;-91
2022/04/02 08:37:36;;;;;;;1.70;1.60;;;4.00;61.10;;;;;;4844435;29;20177;-90
2022/04/02 08:40:23;;;;;;;1.10;1.10;;;3.90;59.90;;;;;;4830469;29;20202;-90
2022/04/02 08:43:27;;;;;;;1.07;1.00;;;3.80;56.80;;;;;;4844546;29;20211;-91
2022/04/02 08:46:16;;;;;;;4.40;2.07;;;3.90;57.10;;;;;;4844316;29;20279;-90
2022/04/02 08:49:04;;;;;;;3.10;1.40;;;4.00;58.10;;;;;;4844273;29;20190;-91
2022/04/02 08:51:46;;;;;;;1.17;1.17;;;4.30;58.90;;;;;;4861424;29;20176;-90
2022/04/02 08:54:28;;;;;;;2.43;1.90;;;4.30;58.80;;;;;;4844776;29;20550;-90
2022/04/02 08:57:20;;;;;;;1.00;1.00;;;4.50;61.00;;;;;;4845045;29;20206;-90
2022/04/02 09:00:04;;;;;;;2.00;1.40;;;4.40;55.80;;;;;;4844541;29;20182;-88
2022/04/02 09:03:01;;;;;;;4.50;1.80;;;4.40;56.10;;;;;;4847978;29;20210;-92
2022/04/02 09:05:34;;;;;;;4.10;1.73;;;4.80;55.60;;;;;;4848498;29;20210;-91
2022/04/02 09:08:38;;;;;;;2.53;1.40;;;4.70;55.90;;;;;;4849837;29;20208;-92
2022/04/02 09:11:24;;;;;;;1.13;1.10;;;4.90;54.80;;;;;;4849983;29;20178;-89
2022/04/02 09:13:56;;;;;;;1.63;1.53;;;5.00;54.10;;;;;;4847625;29;20238;-89
2022/04/02 09:16:27;;;;;;;2.23;1.47;;;5.00;55.10;;;;;;4864022;29;20199;-89
2022/04/02 09:19:09;;;;;;;2.30;1.77;;;5.00;53.40;;;;;;4847642;29;20191;-89
2022/04/02 09:21:57;;;;;;;4.20;1.90;;;5.30;55.10;;;;;;4847414;29;20665;-90
2022/04/02 09:24:28;;;;;;;4.00;2.30;;;5.50;54.80;;;;;;4857608;29;20263;-89
2022/04/02 09:27:12;;;;;;;2.37;2.00;;;5.60;53.30;;;;;;4863697;29;20179;-90
2022/04/02 09:29:50;;;;;;;2.63;1.47;;;5.40;53.30;;;;;;4847419;29;20194;-89
2022/04/02 09:32:46;;;;;;;1.13;1.07;;;5.70;49.20;;;;;;4847184;29;20259;-89
2022/04/02 09:35:40;;;;;;;0.90;0.90;;;5.70;50.90;;;;;;4847807;29;20586;-89
2022/04/02 09:38:26;;;;;;;0.87;0.87;;;5.80;49.30;;;;;;4848405;29;20183;-89
2022/04/02 09:40:59;;;;;;;1.10;1.00;;;5.70;49.10;;;;;;4847315;29;20178;-89
2022/04/02 09:43:31;;;;;;;1.90;1.20;;;5.40;47.00;;;;;;4847041;29;20546;-89
2022/04/02 09:46:14;;;;;;;5.70;1.40;;;5.60;47.70;;;;;;4863625;29;20568;-89
2022/04/02 09:49:08;;;;;;;1.10;1.10;;;5.60;49.00;;;;;;4847212;29;20219;-89
2022/04/02 09:51:36;;;;;;;1.83;1.33;;;5.50;46.10;;;;;;4846832;29;20680;-90
2022/04/02 09:54:04;;;;;;;1.20;1.10;;;5.70;49.50;;;;;;4846880;29;20225;-89
2022/04/02 09:56:40;;;;;;;1.33;1.17;;;5.70;44.70;;;;;;4846676;29;20637;-89
2022/04/02 09:59:22;;;;;;;1.30;1.30;;;5.50;45.20;;;;;;4847012;29;20190;-89
2022/04/02 10:02:04;;;;;;;1.43;1.20;;;5.70;46.00;;;;;;4846746;29;20572;-89
2022/04/02 10:04:53;;;;;;;3.43;1.50;;;5.40;46.10;;;;;;4846608;29;20190;-89
2022/04/02 10:07:49;;;;;;;1.40;1.30;;;5.30;44.90;;;;;;4863258;29;20159;-89
2022/04/02 10:10:15;;;;;;;3.07;1.47;;;5.20;45.30;;;;;;4846630;29;20631;-89
2022/04/02 10:12:46;;;;;;;1.60;1.50;;;5.60;47.50;;;;;;4846520;29;20184;-89
2022/04/02 10:15:14;;;;;;;1.47;1.37;;;5.60;45.60;;;;;;4846580;29;20203;-90
2022/04/02 10:17:46;;;;;;;1.77;1.60;;;5.80;47.10;;;;;;4846647;29;20184;-91
2022/04/02 10:20:13;;;;;;;1.30;1.20;;;6.00;43.60;;;;;;4846544;29;20634;-89
2022/04/02 10:22:43;;;;;;;1.53;1.20;;;6.00;43.00;;;;;;4846946;29;20208;-88
2022/04/02 10:25:11;;;;;;;1.57;1.30;;;6.10;46.10;;;;;;4846658;29;20197;-88
2022/04/02 10:27:39;;;;;;;1.10;1.10;;;6.00;43.30;;;;;;4846773;29;20192;-89
2022/04/02 10:30:12;;;;;;;2.10;1.13;;;5.90;42.10;;;;;;4846941;29;20179;-90
2022/04/02 10:35:49;;;;;;;1.30;1.20;;;5.60;42.30;;;;;;4863133;29;20275;-90
2022/04/02 10:38:34;;;;;;;2.03;1.20;;;5.50;42.60;;;;;;4862624;29;20179;-89
2022/04/02 10:41:08;;;;;;;1.50;1.40;;;5.30;42.30;;;;;;4862688;29;20217;-89
2022/04/02 10:43:51;;;;;;;1.50;1.40;;;5.70;43.20;;;;;;4862750;29;20183;-91
2022/04/02 10:46:20;;;;;;;1.60;1.50;;;5.50;43.50;;;;;;4862465;29;20216;-90
2022/04/02 10:48:56;;;;;;;1.30;1.20;;;5.80;46.90;;;;;;4846048;29;20654;-89
2022/04/02 10:51:24;;;;;;;1.47;1.37;;;5.90;41.60;;;;;;4862424;29;20180;-90
2022/04/02 10:54:08;;;;;;;0.90;0.90;;;5.90;39.10;;;;;;4845899;29;20198;-89
2022/04/02 10:56:40;;;;;;;3.30;1.27;;;6.00;41.70;;;;;;4846154;29;20217;-90
2022/04/02 10:59:08;;;;;;;1.50;1.07;;;6.20;43.00;;;;;;4862505;29;20524;-89
2022/04/02 11:01:38;;;;;;;0.97;0.97;;;5.90;40.70;;;;;;4845587;29;20696;-89
2022/04/02 11:04:09;;;;;;;1.40;1.30;;;5.80;41.60;;;;;;4862395;29;20693;-90
2022/04/02 11:06:49;;;;;;;3.53;1.53;;;5.80;42.60;;;;;;4845683;29;20205;-89
2022/04/02 11:09:30;;;;;;;2.70;1.53;;;5.80;38.90;;;;;;4862251;29;20171;-89
2022/04/02 11:12:03;;;;;;;1.40;1.30;;;5.90;40.60;;;;;;4845693;29;20605;-89
2022/04/02 11:14:43;;;;;;;2.70;1.27;;;6.30;42.60;;;;;;4845804;29;20600;-89
2022/04/02 11:17:30;;;;;;;2.40;1.20;;;6.40;45.20;;;;;;4845592;29;20177;-89
2022/04/02 11:20:04;;;;;;;2.17;1.63;;;5.70;41.70;;;;;;4845831;29;20205;-90
2022/04/02 11:22:46;;;;;;;2.50;1.37;;;5.60;45.00;;;;;;4845745;29;20299;-88
2022/04/02 11:25:21;;;;;;;1.30;1.20;;;5.60;40.80;;;;;;4845840;29;20260;-88
2022/04/02 11:27:50;;;;;;;2.90;1.53;;;5.20;41.40;;;;;;4862126;29;20241;-89
2022/04/02 11:30:17;;;;;;;1.27;1.17;;;5.20;44.30;;;;;;4845109;29;20190;-88
2022/04/02 11:32:45;;;;;;;1.80;1.60;;;5.60;42.00;;;;;;4861673;29;20235;-89
2022/04/02 11:35:14;;;;;;;1.70;1.60;;;5.70;40.90;;;;;;4861625;29;20254;-89
2022/04/02 11:38:05;;;;;;;1.30;1.20;;;6.00;43.60;;;;;;4845106;29;20244;-89
2022/04/02 11:40:34;;;;;;;1.00;0.97;;;6.10;41.80;;;;;;4861980;29;20179;-89
2022/04/02 11:43:02;;;;;;;1.37;1.27;;;6.20;41.80;;;;;;4845049;29;20215;-89
2022/04/02 11:45:29;;;;;;;1.57;1.33;;;6.40;43.10;;;;;;4861535;29;20213;-89
2022/04/02 11:48:10;;;;;;;1.90;1.70;;;6.40;40.80;;;;;;4845157;29;20550;-90
2022/04/02 11:50:39;;;;;;;2.17;1.80;;;6.60;46.10;;;;;;4845123;29;20255;-89
2022/04/02 11:53:05;;;;;;;1.67;1.57;;;6.60;43.20;;;;;;4844952;29;20610;-89
2022/04/02 11:55:36;;;;;;;3.13;1.73;;;6.80;44.10;;;;;;4844787;29;20293;-90
2022/04/02 11:58:05;;;;;;;1.87;1.50;;;6.30;42.50;;;;;;4861444;29;20169;-91
2022/04/02 12:00:36;;;;;;;2.17;1.97;;;6.40;41.80;;;;;;4845165;29;20223;-91
2022/04/02 12:03:02;;;;;;;2.77;1.80;;;6.70;42.20;;;;;;4845001;29;20676;-89
2022/04/02 12:05:54;;;;;;;1.90;1.60;;;7.00;43.60;;;;;;4845499;29;20279;-89
2022/04/02 12:08:30;;;;;;;3.77;1.60;;;6.90;42.90;;;;;;4859243;29;20194;-90
2022/04/02 12:10:57;;;;;;;4.50;3.87;;;6.80;44.30;;;;;;4861299;29;20173;-90
2022/04/02 12:13:23;;;;;;;1.97;1.70;;;6.80;44.70;;;;;;4844684;29;20184;-89
2022/04/02 12:16:01;;;;;;;1.40;1.30;;;6.90;42.30;;;;;;4844837;29;20286;-91
2022/04/02 12:18:29;;;;;;;2.43;1.30;;;7.00;44.00;;;;;;4844716;29;20181;-90
2022/04/02 12:21:09;;;;;;;2.00;1.67;;;6.80;41.20;;;;;;4844680;29;20194;-91
2022/04/02 12:23:37;;;;;;;1.97;1.50;;;6.10;42.50;;;;;;4845360;29;20176;-90
2022/04/02 12:26:03;;;;;;;2.53;1.70;;;6.00;44.20;;;;;;4844574;29;20205;-90
2022/04/02 12:28:30;;;;;;;3.70;1.33;;;6.40;42.10;;;;;;4861015;29;20181;-89
2022/04/02 12:31:06;;;;;;;1.37;1.27;;;6.60;43.90;;;;;;4844529;29;20186;-89
2022/04/02 12:33:32;;;;;;;1.57;1.47;;;6.40;42.60;;;;;;4844574;29;20640;-89
2022/04/02 12:36:00;;;;;;;1.77;1.67;;;6.50;42.70;;;;;;4845822;29;20617;-90
2022/04/02 12:38:27;;;;;;;4.10;1.87;;;6.80;41.30;;;;;;4864837;29;20174;-90
2022/04/02 12:40:56;;;;;;;1.90;1.80;;;6.90;44.50;;;;;;4848456;29;20182;-89
2022/04/02 12:43:26;;;;;;;6.63;2.40;;;7.10;43.30;;;;;;4848524;29;20523;-89
2022/04/02 12:45:52;;;;;;;3.80;1.40;;;6.50;40.80;;;;;;4848683;29;20559;-90
2022/04/02 12:48:18;;;;;;;1.40;1.20;;;6.20;41.20;;;;;;4848486;29;20664;-90
2022/04/02 12:51:05;;;;;;;2.10;1.80;;;6.40;41.40;;;;;;4848502;29;20182;-90
2022/04/02 12:53:35;;;;;;;1.70;1.60;;;6.50;42.40;;;;;;4864839;29;20194;-90
2022/04/02 12:56:04;;;;;;;1.73;1.60;;;6.70;40.20;;;;;;4847995;29;20661;-90
2022/04/02 12:58:37;;;;;;;1.50;1.40;;;6.70;40.20;;;;;;4848066;29;20736;-90
2022/04/02 13:01:12;;;;;;;1.80;1.50;;;6.70;43.50;;;;;;4848426;29;20182;-89
2022/04/02 13:04:06;;;;;;;2.40;1.60;;;6.70;41.00;;;;;;4848111;29;20607;-90
2022/04/02 13:06:34;;;;;;;1.17;1.07;;;6.60;37.70;;;;;;4847829;29;20208;-89
2022/04/02 13:09:01;;;;;;;2.00;1.73;;;6.60;37.30;;;;;;4866552;29;20296;-87
2022/04/02 13:11:45;;;;;;;3.90;1.87;;;6.70;41.90;;;;;;4847650;29;20228;-90
2022/04/02 13:14:21;;;;;;;3.80;2.33;;;6.90;41.70;;;;;;4847546;29;20182;-90
2022/04/02 13:16:50;;;;;;;2.00;1.90;;;6.70;40.30;;;;;;4864278;29;20165;-90
2022/04/02 13:22:15;;;;;;;1.87;1.67;;;7.00;40.00;;;;;;4863996;29;20305;-90
2022/04/02 13:24:58;;;;;;;3.00;1.60;;;6.80;41.00;;;;;;4847384;29;20197;-91
2022/04/02 13:27:33;;;;;;;1.67;1.57;;;6.30;41.60;;;;;;4847239;29;20184;-90
2022/04/02 13:30:12;;;;;;;7.70;2.13;;;6.40;42.10;;;;;;4847204;29;20228;-90
2022/04/02 13:33:10;;;;;;;2.03;1.50;;;6.50;40.50;;;;;;4847173;29;20184;-91
2022/04/02 13:35:39;;;;;;;2.13;1.93;;;6.50;40.80;;;;;;4847067;29;20747;-90
2022/04/02 13:38:49;;;;;;;3.13;1.70;;;6.60;40.30;;;;;;4847105;29;20190;-90
2022/04/02 13:41:33;;;;;;;1.60;1.37;;;6.70;37.10;;;;;;4846965;29;20218;-91
2022/04/02 13:44:26;;;;;;;2.30;2.00;;;7.10;39.80;;;;;;4847484;29;20179;-90
2022/04/02 13:46:54;;;;;;;1.10;1.10;;;7.30;38.50;;;;;;4845347;29;20195;-90
2022/04/02 13:49:31;;;;;;;4.00;1.20;;;6.80;38.40;;;;;;4847799;29;20182;-91
2022/04/02 13:51:59;;;;;;;2.37;1.47;;;6.00;38.80;;;;;;4847721;29;20173;-90
2022/04/02 13:54:41;;;;;;;2.23;1.30;;;6.00;40.10;;;;;;4847585;29;20185;-89
2022/04/02 13:57:12;;;;;;;1.70;1.60;;;6.40;40.00;;;;;;4847587;29;20176;-91
2022/04/02 14:00:05;;;;;;;2.97;1.73;;;6.70;39.60;;;;;;4847855;29;20178;-90
2022/04/02 14:02:33;;;;;;;1.60;1.50;;;6.70;40.30;;;;;;4858758;29;20275;-91
2022/04/02 14:05:06;;;;;;;1.90;1.70;;;6.70;41.30;;;;;;4847426;29;20204;-90
2022/04/02 14:07:36;;;;;;;2.20;2.00;;;6.20;40.70;;;;;;4848447;29;20174;-90
2022/04/02 14:10:08;;;;;;;2.10;1.90;;;5.90;40.40;;;;;;4847919;29;20185;-90
2022/04/02 14:12:42;;;;;;;4.60;2.20;;;5.80;42.70;;;;;;4847207;29;20174;-90
2022/04/02 14:15:13;;;;;;;3.67;2.07;;;5.90;42.20;;;;;;4847187;29;20208;-90
2022/04/02 14:17:44;;;;;;;1.30;1.20;;;6.30;40.30;;;;;;4863944;29;20185;-90
2022/04/02 14:20:15;;;;;;;1.67;1.57;;;6.60;39.60;;;;;;4846944;29;20185;-90
2022/04/02 14:22:58;;;;;;;1.60;1.50;;;6.60;39.70;;;;;;4847047;29;20542;-90
2022/04/02 14:25:45;;;;;;;2.73;2.23;;;6.40;41.50;;;;;;4863598;29;20203;-90
2022/04/02 14:28:28;;;;;;;4.33;2.07;;;6.00;43.00;;;;;;4847081;29;20189;-90
2022/04/02 14:30:57;;;;;;;3.27;2.20;;;5.90;42.50;;;;;;4847109;29;20172;-90
2022/04/02 14:33:32;;;;;;;1.90;1.80;;;6.30;42.80;;;;;;4846968;29;20186;-90
2022/04/02 14:36:18;;;;;;;3.13;1.90;;;6.60;42.00;;;;;;4863586;29;20212;-90
2022/04/02 14:39:10;;;;;;;2.63;1.97;;;6.50;40.50;;;;;;4846970;29;20178;-90
2022/04/02 14:42:11;;;;;;;1.50;1.40;;;6.60;41.00;;;;;;4846582;29;20293;-89
2022/04/02 14:45:06;;;;;;;1.90;1.80;;;6.40;39.20;;;;;;4846562;29;20307;-90
2022/04/02 14:47:53;;;;;;;2.93;1.80;;;6.10;41.90;;;;;;4846699;29;20172;-89
2022/04/02 14:50:56;;;;;;;2.70;1.90;;;6.30;40.60;;;;;;4846581;29;20185;-90
2022/04/02 14:53:40;;;;;;;3.40;1.70;;;6.50;40.30;;;;;;4846976;29;20192;-90
2022/04/02 14:56:33;;;;;;;1.70;1.60;;;6.90;40.30;;;;;;4846483;29;20216;-90
2022/04/02 14:59:23;;;;;;;3.37;1.80;;;6.90;37.80;;;;;;4845949;29;20175;-91
2022/04/02 15:02:04;;;;;;;2.00;1.80;;;6.80;37.70;;;;;;4848064;29;20212;-88
2022/04/02 15:05:10;;;;;;;4.10;2.00;;;6.70;36.90;;;;;;4848060;29;20629;-88
2022/04/02 15:07:41;;;;;;;2.03;1.60;;;6.70;39.50;;;;;;4851304;29;20216;-90
2022/04/02 15:10:28;;;;;;;2.53;1.80;;;6.80;37.70;;;;;;4847835;29;20178;-90
2022/04/02 15:12:55;;;;;;;3.50;1.67;;;6.60;38.10;;;;;;4865414;29;20173;-89
2022/04/02 15:15:28;;;;;;;3.87;1.93;;;6.50;37.30;;;;;;4847012;29;20292;-89
2022/04/02 15:17:59;;;;;;;2.13;1.57;;;6.70;38.30;;;;;;4846502;29;20183;-91